sensor_id;sensor_type;location;lat;lon;timestamp;P1;durP1;ratioP1;P2;durP2;ratioP2
11016;SDS011;54687;50.800;6.772;2023-04-24T00:02:21;1.30;;;1.20;;
11016;SDS011;54687;50.800;6.772;2023-04-24T00:04:49;1.30;;;1.27;;
11016;SDS011;54687;50.800;6.772;2023-04-24T00:07:17;1.38;;;1.30;;
11016;SDS011;54687;50.800;6.772;2023-04-24T00:09:45;1.00;;;1.00;;
11016;SDS011;54687;50.800;6.772;2023-04-24T00:12:11;1.00;;;1.00;;
11016;SDS011;54687;50.800;6.772;2023-04-24T00:14:40;1.90;;;1.20;;
11016;SDS011;54687;50.800;6.772;2023-04-24T00:17:06;1.17;;;1.13;;
11016;SDS011;54687;50.800;6.772;2023-04-24T00:19:33;1.42;;;1.33;;
11016;SDS011;54687;50.800;6.772;2023-04-24T00:22:00;1.10;;;1.10;;
11016;SDS011;54687;50.800;6.772;2023-04-24T00:24:27;2.78;;;1.75;;
11016;SDS011;54687;50.800;6.772;2023-04-24T00:26:54;1.30;;;1.20;;
11016;SDS011;54687;50.800;6.772;2023-04-24T00:29:21;2.30;;;1.58;;
11016;SDS011;54687;50.800;6.772;2023-04-24T00:31:49;1.30;;;1.20;;
11016;SDS011;54687;50.800;6.772;2023-04-24T00:34:17;1.50;;;1.40;;
11016;SDS011;54687;50.800;6.772;2023-04-24T00:36:46;1.10;;;1.10;;
11016;SDS011;54687;50.800;6.772;2023-04-24T00:39:14;1.25;;;1.00;;
11016;SDS011;54687;50.800;6.772;2023-04-24T00:41:40;1.25;;;1.25;;
11016;SDS011;54687;50.800;6.772;2023-04-24T00:44:08;1.52;;;1.42;;
11016;SDS011;54687;50.800;6.772;2023-04-24T00:46:35;1.50;;;1.40;;
11016;SDS011;54687;50.800;6.772;2023-04-24T00:49:03;2.65;;;1.58;;
11016;SDS011;54687;50.800;6.772;2023-04-24T00:51:31;1.40;;;1.30;;
11016;SDS011;54687;50.800;6.772;2023-04-24T00:53:57;1.95;;;1.40;;
11016;SDS011;54687;50.800;6.772;2023-04-24T00:56:24;1.80;;;1.70;;
11016;SDS011;54687;50.800;6.772;2023-04-24T00:58:51;3.00;;;1.55;;
11016;SDS011;54687;50.800;6.772;2023-04-24T01:01:18;1.83;;;1.70;;
11016;SDS011;54687;50.800;6.772;2023-04-24T01:03:46;1.77;;;1.67;;
11016;SDS011;54687;50.800;6.772;2023-04-24T01:06:16;2.10;;;1.65;;
11016;SDS011;54687;50.800;6.772;2023-04-24T01:08:44;1.50;;;1.40;;
11016;SDS011;54687;50.800;6.772;2023-04-24T01:11:15;3.03;;;1.85;;
11016;SDS011;54687;50.800;6.772;2023-04-24T01:13:43;1.80;;;1.70;;
11016;SDS011;54687;50.800;6.772;2023-04-24T01:16:10;2.15;;;2.05;;
11016;SDS011;54687;50.800;6.772;2023-04-24T01:18:37;2.20;;;2.00;;
11016;SDS011;54687;50.800;6.772;2023-04-24T01:21:06;9.43;;;2.92;;
11016;SDS011;54687;50.800;6.772;2023-04-24T01:23:36;3.60;;;3.30;;
11016;SDS011;54687;50.800;6.772;2023-04-24T01:26:03;3.58;;;3.28;;
11016;SDS011;54687;50.800;6.772;2023-04-24T01:28:30;3.30;;;3.10;;
11016;SDS011;54687;50.800;6.772;2023-04-24T01:30:57;3.50;;;3.20;;
11016;SDS011;54687;50.800;6.772;2023-04-24T01:33:24;4.38;;;3.25;;
11016;SDS011;54687;50.800;6.772;2023-04-24T01:35:51;3.25;;;2.95;;
11016;SDS011;54687;50.800;6.772;2023-04-24T01:38:18;3.25;;;2.95;;
11016;SDS011;54687;50.800;6.772;2023-04-24T01:40:46;3.15;;;2.95;;
11016;SDS011;54687;50.800;6.772;2023-04-24T01:43:13;3.38;;;2.97;;
11016;SDS011;54687;50.800;6.772;2023-04-24T01:45:40;3.00;;;2.80;;
11016;SDS011;54687;50.800;6.772;2023-04-24T01:48:07;3.13;;;2.90;;
11016;SDS011;54687;50.800;6.772;2023-04-24T01:50:33;3.08;;;2.78;;
11016;SDS011;54687;50.800;6.772;2023-04-24T01:53:00;3.42;;;3.22;;
11016;SDS011;54687;50.800;6.772;2023-04-24T01:55:27;3.35;;;3.10;;
11016;SDS011;54687;50.800;6.772;2023-04-24T01:57:55;3.75;;;3.28;;
11016;SDS011;54687;50.800;6.772;2023-04-24T02:00:22;3.88;;;3.58;;
11016;SDS011;54687;50.800;6.772;2023-04-24T02:02:50;3.47;;;3.17;;
11016;SDS011;54687;50.800;6.772;2023-04-24T02:05:17;3.72;;;3.28;;
11016;SDS011;54687;50.800;6.772;2023-04-24T02:07:43;3.40;;;3.20;;
11016;SDS011;54687;50.800;6.772;2023-04-24T02:10:10;4.47;;;4.13;;
11016;SDS011;54687;50.800;6.772;2023-04-24T02:12:37;4.40;;;4.00;;
11016;SDS011;54687;50.800;6.772;2023-04-24T02:15:05;4.65;;;4.35;;
11016;SDS011;54687;50.800;6.772;2023-04-24T02:17:32;5.20;;;4.70;;
11016;SDS011;54687;50.800;6.772;2023-04-24T02:19:59;4.28;;;3.97;;
11016;SDS011;54687;50.800;6.772;2023-04-24T02:22:25;4.25;;;3.95;;
11016;SDS011;54687;50.800;6.772;2023-04-24T02:24:52;4.28;;;3.95;;
11016;SDS011;54687;50.800;6.772;2023-04-24T02:27:18;4.75;;;4.35;;
11016;SDS011;54687;50.800;6.772;2023-04-24T02:29:45;4.97;;;4.20;;
11016;SDS011;54687;50.800;6.772;2023-04-24T02:32:13;4.57;;;4.25;;
11016;SDS011;54687;50.800;6.772;2023-04-24T02:34:40;4.85;;;4.40;;
11016;SDS011;54687;50.800;6.772;2023-04-24T02:37:07;4.60;;;4.20;;
11016;SDS011;54687;50.800;6.772;2023-04-24T02:39:33;5.50;;;5.00;;
11016;SDS011;54687;50.800;6.772;2023-04-24T02:42:00;5.38;;;4.88;;
11016;SDS011;54687;50.800;6.772;2023-04-24T02:44:26;6.20;;;5.22;;
11016;SDS011;54687;50.800;6.772;2023-04-24T02:46:53;5.75;;;5.25;;
11016;SDS011;54687;50.800;6.772;2023-04-24T02:49:21;6.07;;;5.53;;
11016;SDS011;54687;50.800;6.772;2023-04-24T02:51:48;5.63;;;5.03;;
11016;SDS011;54687;50.800;6.772;2023-04-24T02:54:14;6.13;;;5.53;;
11016;SDS011;54687;50.800;6.772;2023-04-24T02:56:41;6.20;;;5.60;;
11016;SDS011;54687;50.800;6.772;2023-04-24T02:59:08;6.35;;;5.85;;
11016;SDS011;54687;50.800;6.772;2023-04-24T03:01:35;6.20;;;5.70;;
11016;SDS011;54687;50.800;6.772;2023-04-24T03:04:02;6.30;;;5.38;;
11016;SDS011;54687;50.800;6.772;2023-04-24T03:06:30;6.68;;;5.65;;
11016;SDS011;54687;50.800;6.772;2023-04-24T03:08:58;6.50;;;5.95;;
11016;SDS011;54687;50.800;6.772;2023-04-24T03:11:24;6.22;;;5.72;;
11016;SDS011;54687;50.800;6.772;2023-04-24T03:13:51;5.80;;;5.30;;
11016;SDS011;54687;50.800;6.772;2023-04-24T03:16:18;6.75;;;6.13;;
11016;SDS011;54687;50.800;6.772;2023-04-24T03:18:45;7.03;;;5.97;;
11016;SDS011;54687;50.800;6.772;2023-04-24T03:21:11;6.70;;;5.88;;
11016;SDS011;54687;50.800;6.772;2023-04-24T03:23:39;6.43;;;5.82;;
11016;SDS011;54687;50.800;6.772;2023-04-24T03:26:06;6.30;;;5.70;;
11016;SDS011;54687;50.800;6.772;2023-04-24T03:28:34;6.53;;;5.90;;
11016;SDS011;54687;50.800;6.772;2023-04-24T03:31:00;7.55;;;6.22;;
11016;SDS011;54687;50.800;6.772;2023-04-24T03:33:27;6.38;;;5.78;;
11016;SDS011;54687;50.800;6.772;2023-04-24T03:35:53;5.88;;;5.30;;
11016;SDS011;54687;50.800;6.772;2023-04-24T03:38:20;5.97;;;5.50;;
11016;SDS011;54687;50.800;6.772;2023-04-24T03:40:48;5.95;;;5.45;;
11016;SDS011;54687;50.800;6.772;2023-04-24T03:43:14;7.05;;;5.45;;
11016;SDS011;54687;50.800;6.772;2023-04-24T03:45:41;7.00;;;5.60;;
11016;SDS011;54687;50.800;6.772;2023-04-24T03:48:08;6.22;;;5.72;;
11016;SDS011;54687;50.800;6.772;2023-04-24T03:50:34;6.68;;;6.07;;
11016;SDS011;54687;50.800;6.772;2023-04-24T03:53:01;6.10;;;5.50;;
11016;SDS011;54687;50.800;6.772;2023-04-24T03:55:27;6.30;;;5.70;;
11016;SDS011;54687;50.800;6.772;2023-04-24T03:57:56;6.15;;;5.55;;
11016;SDS011;54687;50.800;6.772;2023-04-24T04:00:22;6.00;;;5.43;;
11016;SDS011;54687;50.800;6.772;2023-04-24T04:02:49;5.75;;;5.07;;
11016;SDS011;54687;50.800;6.772;2023-04-24T04:05:16;7.75;;;5.68;;
11016;SDS011;54687;50.800;6.772;2023-04-24T04:07:43;6.07;;;5.57;;
11016;SDS011;54687;50.800;6.772;2023-04-24T04:10:10;6.82;;;6.13;;
11016;SDS011;54687;50.800;6.772;2023-04-24T04:12:37;7.07;;;5.88;;
11016;SDS011;54687;50.800;6.772;2023-04-24T04:15:05;5.82;;;5.18;;
11016;SDS011;54687;50.800;6.772;2023-04-24T04:17:33;6.18;;;5.13;;
11016;SDS011;54687;50.800;6.772;2023-04-24T04:19:59;6.25;;;5.22;;
11016;SDS011;54687;50.800;6.772;2023-04-24T04:22:26;5.88;;;5.38;;
11016;SDS011;54687;50.800;6.772;2023-04-24T04:24:53;5.53;;;4.88;;
11016;SDS011;54687;50.800;6.772;2023-04-24T04:27:19;5.93;;;5.38;;
11016;SDS011;54687;50.800;6.772;2023-04-24T04:29:46;6.20;;;5.60;;
11016;SDS011;54687;50.800;6.772;2023-04-24T04:32:14;5.90;;;5.38;;
11016;SDS011;54687;50.800;6.772;2023-04-24T04:34:41;6.93;;;5.80;;
11016;SDS011;54687;50.800;6.772;2023-04-24T04:37:10;6.20;;;5.60;;
11016;SDS011;54687;50.800;6.772;2023-04-24T04:39:37;5.75;;;5.25;;
11016;SDS011;54687;50.800;6.772;2023-04-24T04:42:04;8.73;;;7.15;;
11016;SDS011;54687;50.800;6.772;2023-04-24T04:44:31;6.53;;;5.93;;
11016;SDS011;54687;50.800;6.772;2023-04-24T04:46:58;7.00;;;5.80;;
11016;SDS011;54687;50.800;6.772;2023-04-24T04:49:27;5.50;;;4.97;;
11016;SDS011;54687;50.800;6.772;2023-04-24T04:51:53;5.43;;;4.93;;
11016;SDS011;54687;50.800;6.772;2023-04-24T04:54:20;6.40;;;5.20;;
11016;SDS011;54687;50.800;6.772;2023-04-24T04:56:47;5.43;;;4.93;;
11016;SDS011;54687;50.800;6.772;2023-04-24T04:59:16;5.20;;;4.55;;
11016;SDS011;54687;50.800;6.772;2023-04-24T05:01:43;5.15;;;4.68;;
11016;SDS011;54687;50.800;6.772;2023-04-24T05:04:09;5.30;;;4.80;;
11016;SDS011;54687;50.800;6.772;2023-04-24T05:06:37;10.00;;;5.32;;
11016;SDS011;54687;50.800;6.772;2023-04-24T05:09:04;5.60;;;4.80;;
11016;SDS011;54687;50.800;6.772;2023-04-24T05:11:32;5.50;;;5.00;;
11016;SDS011;54687;50.800;6.772;2023-04-24T05:13:58;5.45;;;4.95;;
11016;SDS011;54687;50.800;6.772;2023-04-24T05:16:25;5.97;;;5.40;;
11016;SDS011;54687;50.800;6.772;2023-04-24T05:18:53;6.00;;;5.40;;
11016;SDS011;54687;50.800;6.772;2023-04-24T05:21:20;5.70;;;5.28;;
11016;SDS011;54687;50.800;6.772;2023-04-24T05:23:48;5.75;;;5.25;;
11016;SDS011;54687;50.800;6.772;2023-04-24T05:26:15;6.43;;;5.82;;
11016;SDS011;54687;50.800;6.772;2023-04-24T05:28:43;6.35;;;5.72;;
11016;SDS011;54687;50.800;6.772;2023-04-24T05:31:10;6.43;;;5.82;;
11016;SDS011;54687;50.800;6.772;2023-04-24T05:33:37;5.93;;;5.32;;
11016;SDS011;54687;50.800;6.772;2023-04-24T05:36:04;5.97;;;5.47;;
11016;SDS011;54687;50.800;6.772;2023-04-24T05:38:32;6.47;;;5.50;;
11016;SDS011;54687;50.800;6.772;2023-04-24T05:41:00;6.30;;;5.72;;
11016;SDS011;54687;50.800;6.772;2023-04-24T05:43:26;6.10;;;5.57;;
11016;SDS011;54687;50.800;6.772;2023-04-24T05:45:53;6.63;;;5.10;;
11016;SDS011;54687;50.800;6.772;2023-04-24T05:48:20;7.07;;;5.43;;
11016;SDS011;54687;50.800;6.772;2023-04-24T05:50:47;6.38;;;5.10;;
11016;SDS011;54687;50.800;6.772;2023-04-24T05:53:14;5.50;;;4.97;;
11016;SDS011;54687;50.800;6.772;2023-04-24T05:55:41;5.15;;;4.68;;
11016;SDS011;54687;50.800;6.772;2023-04-24T05:58:09;4.32;;;3.92;;
11016;SDS011;54687;50.800;6.772;2023-04-24T06:00:37;4.47;;;3.50;;
11016;SDS011;54687;50.800;6.772;2023-04-24T06:03:07;3.88;;;3.50;;
11016;SDS011;54687;50.800;6.772;2023-04-24T06:05:34;4.25;;;3.95;;
11016;SDS011;54687;50.800;6.772;2023-04-24T06:08:01;3.83;;;3.53;;
11016;SDS011;54687;50.800;6.772;2023-04-24T06:10:27;3.72;;;3.42;;
11016;SDS011;54687;50.800;6.772;2023-04-24T06:12:54;3.00;;;2.80;;
11016;SDS011;54687;50.800;6.772;2023-04-24T06:15:28;3.40;;;3.10;;
11016;SDS011;54687;50.800;6.772;2023-04-24T06:17:55;3.33;;;3.03;;
11016;SDS011;54687;50.800;6.772;2023-04-24T06:20:22;2.60;;;2.40;;
11016;SDS011;54687;50.800;6.772;2023-04-24T06:22:49;3.58;;;2.10;;
11016;SDS011;54687;50.800;6.772;2023-04-24T06:25:16;2.20;;;2.10;;
11016;SDS011;54687;50.800;6.772;2023-04-24T06:27:43;3.10;;;2.55;;
11016;SDS011;54687;50.800;6.772;2023-04-24T06:30:10;2.60;;;2.40;;
11016;SDS011;54687;50.800;6.772;2023-04-24T06:32:40;2.63;;;2.42;;
11016;SDS011;54687;50.800;6.772;2023-04-24T06:35:07;2.70;;;2.50;;
11016;SDS011;54687;50.800;6.772;2023-04-24T06:37:35;2.40;;;2.20;;
11016;SDS011;54687;50.800;6.772;2023-04-24T06:40:01;2.13;;;1.98;;
11016;SDS011;54687;50.800;6.772;2023-04-24T06:42:28;2.60;;;2.15;;
11016;SDS011;54687;50.800;6.772;2023-04-24T06:44:55;1.98;;;1.88;;
11016;SDS011;54687;50.800;6.772;2023-04-24T06:47:21;2.15;;;1.98;;
11016;SDS011;54687;50.800;6.772;2023-04-24T06:49:49;1.65;;;1.55;;
11016;SDS011;54687;50.800;6.772;2023-04-24T06:52:17;1.70;;;1.60;;
11016;SDS011;54687;50.800;6.772;2023-04-24T06:54:44;1.80;;;1.70;;
11016;SDS011;54687;50.800;6.772;2023-04-24T06:57:11;1.65;;;1.55;;
11016;SDS011;54687;50.800;6.772;2023-04-24T06:59:37;1.67;;;1.58;;
11016;SDS011;54687;50.800;6.772;2023-04-24T07:02:04;2.13;;;1.75;;
11016;SDS011;54687;50.800;6.772;2023-04-24T07:04:31;1.92;;;1.83;;
11016;SDS011;54687;50.800;6.772;2023-04-24T07:06:59;2.60;;;1.88;;
11016;SDS011;54687;50.800;6.772;2023-04-24T07:09:26;2.30;;;1.95;;
11016;SDS011;54687;50.800;6.772;2023-04-24T07:11:53;2.50;;;1.77;;
11016;SDS011;54687;50.800;6.772;2023-04-24T07:14:21;1.45;;;1.35;;
11016;SDS011;54687;50.800;6.772;2023-04-24T07:16:49;2.08;;;1.88;;
11016;SDS011;54687;50.800;6.772;2023-04-24T07:19:17;3.53;;;1.90;;
11016;SDS011;54687;50.800;6.772;2023-04-24T07:21:43;1.20;;;1.20;;
11016;SDS011;54687;50.800;6.772;2023-04-24T07:24:11;4.57;;;2.08;;
11016;SDS011;54687;50.800;6.772;2023-04-24T07:26:38;2.20;;;1.73;;
11016;SDS011;54687;50.800;6.772;2023-04-24T07:29:05;2.33;;;1.55;;
11016;SDS011;54687;50.800;6.772;2023-04-24T07:31:32;2.47;;;1.58;;
11016;SDS011;54687;50.800;6.772;2023-04-24T07:33:59;2.10;;;1.80;;
11016;SDS011;54687;50.800;6.772;2023-04-24T07:36:25;2.28;;;2.08;;
11016;SDS011;54687;50.800;6.772;2023-04-24T07:38:54;5.38;;;1.80;;
11016;SDS011;54687;50.800;6.772;2023-04-24T07:41:23;1.73;;;1.55;;
11016;SDS011;54687;50.800;6.772;2023-04-24T07:43:50;2.90;;;2.03;;
11016;SDS011;54687;50.800;6.772;2023-04-24T07:46:17;3.28;;;2.47;;
11016;SDS011;54687;50.800;6.772;2023-04-24T07:48:44;2.88;;;2.47;;
11016;SDS011;54687;50.800;6.772;2023-04-24T07:51:13;2.72;;;2.13;;
11016;SDS011;54687;50.800;6.772;2023-04-24T07:53:39;2.45;;;2.10;;
11016;SDS011;54687;50.800;6.772;2023-04-24T07:56:06;2.05;;;1.95;;
11016;SDS011;54687;50.800;6.772;2023-04-24T07:58:35;2.50;;;2.30;;
11016;SDS011;54687;50.800;6.772;2023-04-24T08:01:01;2.78;;;2.08;;
11016;SDS011;54687;50.800;6.772;2023-04-24T08:03:28;2.50;;;2.30;;
11016;SDS011;54687;50.800;6.772;2023-04-24T08:05:54;3.08;;;2.78;;
11016;SDS011;54687;50.800;6.772;2023-04-24T08:08:22;2.33;;;2.13;;
11016;SDS011;54687;50.800;6.772;2023-04-24T08:10:49;2.80;;;2.30;;
11016;SDS011;54687;50.800;6.772;2023-04-24T08:13:18;2.38;;;2.20;;
11016;SDS011;54687;50.800;6.772;2023-04-24T08:15:45;2.28;;;2.13;;
11016;SDS011;54687;50.800;6.772;2023-04-24T08:18:15;2.60;;;2.40;;
11016;SDS011;54687;50.800;6.772;2023-04-24T08:20:42;3.08;;;2.75;;
11016;SDS011;54687;50.800;6.772;2023-04-24T08:23:10;3.00;;;2.70;;
11016;SDS011;54687;50.800;6.772;2023-04-24T08:25:36;3.22;;;2.90;;
11016;SDS011;54687;50.800;6.772;2023-04-24T08:28:05;3.53;;;2.75;;
11016;SDS011;54687;50.800;6.772;2023-04-24T08:30:32;4.30;;;3.10;;
11016;SDS011;54687;50.800;6.772;2023-04-24T08:33:01;3.10;;;2.85;;
11016;SDS011;54687;50.800;6.772;2023-04-24T08:35:27;5.25;;;3.60;;
11016;SDS011;54687;50.800;6.772;2023-04-24T08:37:54;3.90;;;3.45;;
11016;SDS011;54687;50.800;6.772;2023-04-24T08:40:22;5.40;;;4.00;;
11016;SDS011;54687;50.800;6.772;2023-04-24T08:42:54;4.72;;;3.60;;
11016;SDS011;54687;50.800;6.772;2023-04-24T08:45:22;4.35;;;3.63;;
11016;SDS011;54687;50.800;6.772;2023-04-24T08:47:49;4.05;;;3.75;;
11016;SDS011;54687;50.800;6.772;2023-04-24T08:50:19;4.30;;;3.90;;
11016;SDS011;54687;50.800;6.772;2023-04-24T08:52:48;4.47;;;4.07;;
11016;SDS011;54687;50.800;6.772;2023-04-24T08:55:16;5.03;;;4.18;;
11016;SDS011;54687;50.800;6.772;2023-04-24T08:57:44;5.10;;;4.60;;
11016;SDS011;54687;50.800;6.772;2023-04-24T09:00:13;5.10;;;4.60;;
11016;SDS011;54687;50.800;6.772;2023-04-24T09:02:41;6.40;;;4.43;;
11016;SDS011;54687;50.800;6.772;2023-04-24T09:05:09;5.10;;;4.40;;
11016;SDS011;54687;50.800;6.772;2023-04-24T09:07:38;5.20;;;4.70;;
11016;SDS011;54687;50.800;6.772;2023-04-24T09:10:06;4.93;;;4.53;;
11016;SDS011;54687;50.800;6.772;2023-04-24T09:12:35;6.43;;;4.90;;
11016;SDS011;54687;50.800;6.772;2023-04-24T09:15:02;6.85;;;4.85;;
11016;SDS011;54687;50.800;6.772;2023-04-24T09:17:30;5.47;;;4.80;;
11016;SDS011;54687;50.800;6.772;2023-04-24T09:19:57;4.57;;;4.18;;
11016;SDS011;54687;50.800;6.772;2023-04-24T09:22:23;4.97;;;4.57;;
11016;SDS011;54687;50.800;6.772;2023-04-24T09:25:00;5.53;;;4.50;;
11016;SDS011;54687;50.800;6.772;2023-04-24T09:27:29;5.63;;;4.68;;
11016;SDS011;54687;50.800;6.772;2023-04-24T09:29:57;5.78;;;4.90;;
11016;SDS011;54687;50.800;6.772;2023-04-24T09:32:25;6.25;;;4.95;;
11016;SDS011;54687;50.800;6.772;2023-04-24T09:35:05;5.10;;;4.60;;
11016;SDS011;54687;50.800;6.772;2023-04-24T09:37:35;5.75;;;5.25;;
11016;SDS011;54687;50.800;6.772;2023-04-24T09:40:10;7.05;;;5.07;;
11016;SDS011;54687;50.800;6.772;2023-04-24T09:42:38;5.25;;;4.80;;
11016;SDS011;54687;50.800;6.772;2023-04-24T09:45:08;4.13;;;3.83;;
11016;SDS011;54687;50.800;6.772;2023-04-24T09:47:36;4.47;;;4.03;;
11016;SDS011;54687;50.800;6.772;2023-04-24T09:50:10;5.03;;;4.07;;
11016;SDS011;54687;50.800;6.772;2023-04-24T09:52:41;4.43;;;4.03;;
11016;SDS011;54687;50.800;6.772;2023-04-24T09:55:13;5.72;;;4.22;;
11016;SDS011;54687;50.800;6.772;2023-04-24T09:57:48;5.03;;;4.63;;
11016;SDS011;54687;50.800;6.772;2023-04-24T10:00:22;5.88;;;4.75;;
11016;SDS011;54687;50.800;6.772;2023-04-24T10:02:53;5.57;;;4.13;;
11016;SDS011;54687;50.800;6.772;2023-04-24T10:05:23;4.93;;;3.97;;
11016;SDS011;54687;50.800;6.772;2023-04-24T10:07:50;5.30;;;4.80;;
11016;SDS011;54687;50.800;6.772;2023-04-24T10:10:19;5.95;;;4.43;;
11016;SDS011;54687;50.800;6.772;2023-04-24T10:12:45;4.70;;;4.30;;
11016;SDS011;54687;50.800;6.772;2023-04-24T10:15:13;4.90;;;3.72;;
11016;SDS011;54687;50.800;6.772;2023-04-24T10:17:40;6.10;;;4.07;;
11016;SDS011;54687;50.800;6.772;2023-04-24T10:20:07;4.18;;;3.70;;
11016;SDS011;54687;50.800;6.772;2023-04-24T10:22:34;4.65;;;3.47;;
11016;SDS011;54687;50.800;6.772;2023-04-24T10:25:03;6.13;;;3.63;;
11016;SDS011;54687;50.800;6.772;2023-04-24T10:27:33;5.47;;;3.67;;
11016;SDS011;54687;50.800;6.772;2023-04-24T10:30:01;4.70;;;3.97;;
11016;SDS011;54687;50.800;6.772;2023-04-24T10:32:28;6.20;;;4.30;;
11016;SDS011;54687;50.800;6.772;2023-04-24T10:34:55;6.72;;;4.03;;
11016;SDS011;54687;50.800;6.772;2023-04-24T10:37:21;9.82;;;5.05;;
11016;SDS011;54687;50.800;6.772;2023-04-24T10:39:49;6.03;;;4.90;;
11016;SDS011;54687;50.800;6.772;2023-04-24T10:42:19;5.60;;;4.28;;
11016;SDS011;54687;50.800;6.772;2023-04-24T10:44:48;5.60;;;4.28;;
11016;SDS011;54687;50.800;6.772;2023-04-24T10:47:15;8.73;;;5.55;;
11016;SDS011;54687;50.800;6.772;2023-04-24T10:49:41;8.95;;;4.90;;
11016;SDS011;54687;50.800;6.772;2023-04-24T10:52:08;8.00;;;6.03;;
11016;SDS011;54687;50.800;6.772;2023-04-24T10:54:41;7.63;;;6.20;;
11016;SDS011;54687;50.800;6.772;2023-04-24T10:57:26;9.70;;;6.00;;
11016;SDS011;54687;50.800;6.772;2023-04-24T11:00:13;8.27;;;5.60;;
11016;SDS011;54687;50.800;6.772;2023-04-24T11:02:42;7.47;;;5.45;;
11016;SDS011;54687;50.800;6.772;2023-04-24T11:05:14;6.53;;;4.82;;
11016;SDS011;54687;50.800;6.772;2023-04-24T11:10:46;8.30;;;4.70;;
11016;SDS011;54687;50.800;6.772;2023-04-24T11:13:16;6.72;;;4.47;;
11016;SDS011;54687;50.800;6.772;2023-04-24T11:15:52;6.05;;;4.13;;
11016;SDS011;54687;50.800;6.772;2023-04-24T11:18:38;7.28;;;4.60;;
11016;SDS011;54687;50.800;6.772;2023-04-24T11:21:09;4.95;;;4.20;;
11016;SDS011;54687;50.800;6.772;2023-04-24T11:23:37;7.38;;;4.47;;
11016;SDS011;54687;50.800;6.772;2023-04-24T11:26:10;8.32;;;4.43;;
11016;SDS011;54687;50.800;6.772;2023-04-24T11:28:43;6.93;;;3.95;;
11016;SDS011;54687;50.800;6.772;2023-04-24T11:34:06;6.13;;;3.90;;
11016;SDS011;54687;50.800;6.772;2023-04-24T11:36:34;6.68;;;3.95;;
11016;SDS011;54687;50.800;6.772;2023-04-24T11:39:03;6.50;;;3.70;;
11016;SDS011;54687;50.800;6.772;2023-04-24T11:41:30;7.63;;;3.83;;
11016;SDS011;54687;50.800;6.772;2023-04-24T11:43:57;8.07;;;4.07;;
11016;SDS011;54687;50.800;6.772;2023-04-24T11:46:26;6.63;;;4.20;;
11016;SDS011;54687;50.800;6.772;2023-04-24T11:48:56;4.38;;;3.80;;
11016;SDS011;54687;50.800;6.772;2023-04-24T11:51:22;9.18;;;4.80;;
11016;SDS011;54687;50.800;6.772;2023-04-24T11:53:50;7.50;;;4.47;;
11016;SDS011;54687;50.800;6.772;2023-04-24T11:56:17;7.25;;;4.20;;
11016;SDS011;54687;50.800;6.772;2023-04-24T11:58:45;8.23;;;4.88;;
11016;SDS011;54687;50.800;6.772;2023-04-24T12:01:12;7.57;;;4.88;;
11016;SDS011;54687;50.800;6.772;2023-04-24T12:03:38;7.13;;;5.15;;
11016;SDS011;54687;50.800;6.772;2023-04-24T12:06:10;8.50;;;4.93;;
11016;SDS011;54687;50.800;6.772;2023-04-24T12:08:37;8.00;;;5.70;;
11016;SDS011;54687;50.800;6.772;2023-04-24T12:11:04;7.68;;;5.35;;
11016;SDS011;54687;50.800;6.772;2023-04-24T12:13:33;6.47;;;5.30;;
11016;SDS011;54687;50.800;6.772;2023-04-24T12:16:01;7.47;;;5.00;;
11016;SDS011;54687;50.800;6.772;2023-04-24T12:18:28;8.45;;;5.30;;
11016;SDS011;54687;50.800;6.772;2023-04-24T12:20:54;10.88;;;5.55;;
11016;SDS011;54687;50.800;6.772;2023-04-24T12:23:34;6.70;;;5.72;;
11016;SDS011;54687;50.800;6.772;2023-04-24T12:26:03;8.23;;;5.05;;
11016;SDS011;54687;50.800;6.772;2023-04-24T12:28:34;8.85;;;5.30;;
11016;SDS011;54687;50.800;6.772;2023-04-24T12:31:02;8.65;;;5.82;;
11016;SDS011;54687;50.800;6.772;2023-04-24T12:33:31;8.07;;;5.28;;
11016;SDS011;54687;50.800;6.772;2023-04-24T12:35:59;10.20;;;5.32;;
11016;SDS011;54687;50.800;6.772;2023-04-24T12:38:27;7.35;;;4.97;;
11016;SDS011;54687;50.800;6.772;2023-04-24T12:41:02;8.63;;;5.38;;
11016;SDS011;54687;50.800;6.772;2023-04-24T12:43:30;6.68;;;5.38;;
11016;SDS011;54687;50.800;6.772;2023-04-24T12:45:57;9.65;;;5.53;;
11016;SDS011;54687;50.800;6.772;2023-04-24T12:48:25;9.15;;;5.70;;
11016;SDS011;54687;50.800;6.772;2023-04-24T12:50:51;7.88;;;5.07;;
11016;SDS011;54687;50.800;6.772;2023-04-24T12:53:18;10.98;;;6.05;;
11016;SDS011;54687;50.800;6.772;2023-04-24T12:55:45;8.43;;;5.32;;
11016;SDS011;54687;50.800;6.772;2023-04-24T12:58:20;9.27;;;5.40;;
11016;SDS011;54687;50.800;6.772;2023-04-24T13:00:47;11.00;;;5.60;;
11016;SDS011;54687;50.800;6.772;2023-04-24T13:03:14;8.18;;;4.95;;
11016;SDS011;54687;50.800;6.772;2023-04-24T13:05:41;7.13;;;5.35;;
11016;SDS011;54687;50.800;6.772;2023-04-24T13:08:08;8.05;;;4.93;;
11016;SDS011;54687;50.800;6.772;2023-04-24T13:10:34;10.90;;;5.03;;
11016;SDS011;54687;50.800;6.772;2023-04-24T13:13:02;8.68;;;5.35;;
11016;SDS011;54687;50.800;6.772;2023-04-24T13:15:30;7.68;;;5.18;;
11016;SDS011;54687;50.800;6.772;2023-04-24T13:17:58;9.95;;;5.10;;
11016;SDS011;54687;50.800;6.772;2023-04-24T13:20:25;8.90;;;5.60;;
11016;SDS011;54687;50.800;6.772;2023-04-24T13:22:52;7.10;;;5.03;;
11016;SDS011;54687;50.800;6.772;2023-04-24T13:25:19;10.30;;;5.60;;
11016;SDS011;54687;50.800;6.772;2023-04-24T13:27:46;7.50;;;5.07;;
11016;SDS011;54687;50.800;6.772;2023-04-24T13:30:12;8.68;;;5.63;;
11016;SDS011;54687;50.800;6.772;2023-04-24T13:32:40;9.20;;;5.10;;
11016;SDS011;54687;50.800;6.772;2023-04-24T13:35:07;7.80;;;4.93;;
11016;SDS011;54687;50.800;6.772;2023-04-24T13:37:34;9.48;;;5.40;;
11016;SDS011;54687;50.800;6.772;2023-04-24T13:40:01;6.53;;;5.40;;
11016;SDS011;54687;50.800;6.772;2023-04-24T13:42:31;8.60;;;5.88;;
11016;SDS011;54687;50.800;6.772;2023-04-24T13:44:57;8.63;;;6.00;;
11016;SDS011;54687;50.800;6.772;2023-04-24T13:47:24;13.50;;;6.20;;
11016;SDS011;54687;50.800;6.772;2023-04-24T13:49:52;8.25;;;6.18;;
11016;SDS011;54687;50.800;6.772;2023-04-24T13:52:19;8.73;;;5.97;;
11016;SDS011;54687;50.800;6.772;2023-04-24T13:54:45;9.73;;;6.13;;
11016;SDS011;54687;50.800;6.772;2023-04-24T13:57:13;8.48;;;5.47;;
11016;SDS011;54687;50.800;6.772;2023-04-24T13:59:40;10.13;;;6.43;;
11016;SDS011;54687;50.800;6.772;2023-04-24T14:02:07;8.40;;;6.40;;
11016;SDS011;54687;50.800;6.772;2023-04-24T14:04:33;8.27;;;5.78;;
11016;SDS011;54687;50.800;6.772;2023-04-24T14:07:01;6.28;;;5.18;;
11016;SDS011;54687;50.800;6.772;2023-04-24T14:09:28;6.45;;;4.75;;
11016;SDS011;54687;50.800;6.772;2023-04-24T14:11:54;7.82;;;5.00;;
11016;SDS011;54687;50.800;6.772;2023-04-24T14:14:21;7.28;;;4.13;;
11016;SDS011;54687;50.800;6.772;2023-04-24T14:16:47;9.27;;;4.95;;
11016;SDS011;54687;50.800;6.772;2023-04-24T14:19:14;6.13;;;4.88;;
11016;SDS011;54687;50.800;6.772;2023-04-24T14:21:41;6.55;;;5.40;;
11016;SDS011;54687;50.800;6.772;2023-04-24T14:24:09;5.85;;;4.43;;
11016;SDS011;54687;50.800;6.772;2023-04-24T14:26:35;7.25;;;4.95;;
11016;SDS011;54687;50.800;6.772;2023-04-24T14:29:02;10.77;;;5.65;;
11016;SDS011;54687;50.800;6.772;2023-04-24T14:31:29;6.30;;;4.70;;
11016;SDS011;54687;50.800;6.772;2023-04-24T14:33:55;7.80;;;5.13;;
11016;SDS011;54687;50.800;6.772;2023-04-24T14:36:22;8.23;;;4.82;;
11016;SDS011;54687;50.800;6.772;2023-04-24T14:38:49;9.70;;;5.68;;
11016;SDS011;54687;50.800;6.772;2023-04-24T14:41:17;5.07;;;4.40;;
11016;SDS011;54687;50.800;6.772;2023-04-24T14:43:43;4.90;;;4.10;;
11016;SDS011;54687;50.800;6.772;2023-04-24T14:46:10;7.05;;;4.28;;
11016;SDS011;54687;50.800;6.772;2023-04-24T14:48:37;6.18;;;4.47;;
11016;SDS011;54687;50.800;6.772;2023-04-24T14:51:03;5.47;;;4.00;;
11016;SDS011;54687;50.800;6.772;2023-04-24T14:53:30;6.68;;;4.22;;
11016;SDS011;54687;50.800;6.772;2023-04-24T14:55:56;5.40;;;4.53;;
11016;SDS011;54687;50.800;6.772;2023-04-24T14:58:24;5.63;;;4.22;;